createdAt,value
2022-12-25T00:04:39.881Z,70.30
2022-12-25T00:09:41.627Z,70.30
2022-12-25T00:14:43.390Z,70.30
2022-12-25T00:19:45.350Z,70.20
2022-12-25T00:24:47.943Z,70.10
2022-12-25T00:29:49.930Z,70.00
2022-12-25T00:34:51.616Z,70.00
2022-12-25T00:39:53.190Z,70.00
2022-12-25T00:44:54.752Z,70.00
2022-12-25T00:49:56.626Z,69.90
2022-12-25T00:54:58.283Z,70.00
2022-12-25T00:59:59.874Z,69.90
2022-12-25T01:05:01.612Z,69.90
2022-12-25T01:10:22.242Z,69.90
2022-12-25T01:15:23.968Z,69.90
2022-12-25T01:20:25.744Z,70.00
2022-12-25T01:25:27.613Z,69.90
2022-12-25T01:30:29.344Z,70.00
2022-12-25T01:35:31.191Z,70.00
2022-12-25T01:40:34.368Z,70.00
2022-12-25T01:45:38.408Z,70.00
2022-12-25T01:50:41.743Z,70.00
2022-12-25T01:55:44.655Z,70.00
2022-12-25T02:06:06.776Z,70.00
2022-12-25T02:11:29.061Z,70.00
2022-12-25T02:16:34.916Z,70.00
2022-12-25T02:22:16.854Z,70.00
2022-12-25T02:27:37.503Z,70.10
2022-12-25T02:32:45.288Z,70.00
2022-12-25T02:37:46.911Z,70.10
2022-12-25T02:43:07.535Z,70.00
2022-12-25T02:48:28.964Z,70.00
2022-12-25T02:53:50.790Z,70.00
2022-12-25T02:59:11.700Z,70.10
2022-12-25T03:04:34.026Z,70.10
2022-12-25T03:09:57.873Z,70.10
2022-12-25T03:15:18.302Z,70.10
2022-12-25T03:20:38.824Z,70.00
2022-12-25T03:25:59.205Z,70.00
2022-12-25T03:31:12.761Z,70.00
2022-12-25T03:36:22.740Z,70.10
2022-12-25T03:41:54.241Z,70.10
2022-12-25T03:47:41.779Z,70.00
2022-12-25T03:53:03.573Z,70.00
2022-12-25T03:58:23.663Z,70.00
2022-12-25T04:03:43.942Z,70.00
2022-12-25T04:09:04.412Z,70.10
2022-12-25T04:14:24.621Z,70.00
2022-12-25T04:19:52.354Z,70.00
2022-12-25T04:25:12.359Z,70.00
2022-12-25T04:30:32.511Z,69.90
2022-12-25T04:35:52.722Z,69.90
2022-12-25T04:40:54.378Z,69.90
2022-12-25T06:03:24.099Z,69.80
2022-12-25T06:08:25.860Z,69.00
2022-12-25T06:13:27.414Z,69.60
2022-12-25T06:18:29.038Z,68.40
2022-12-25T06:23:30.685Z,68.10
2022-12-25T06:28:32.362Z,67.90
2022-12-25T06:33:34.092Z,67.90
2022-12-25T06:38:36.077Z,68.10
2022-12-25T06:43:37.899Z,68.30
2022-12-25T06:48:40.324Z,68.40
2022-12-25T06:53:42.055Z,69.40
2022-12-25T06:58:44.629Z,68.30
2022-12-25T07:03:46.997Z,68.10
2022-12-25T07:08:48.757Z,67.80
2022-12-25T07:13:50.821Z,67.80
2022-12-25T07:18:52.722Z,67.80
2022-12-25T07:23:54.462Z,67.90
2022-12-25T07:28:56.112Z,68.10
2022-12-25T07:33:57.730Z,68.20
2022-12-25T07:38:59.271Z,68.50
2022-12-25T07:44:00.895Z,68.60
2022-12-25T07:49:02.783Z,68.80
2022-12-25T07:54:04.763Z,69.00
2022-12-25T07:59:06.487Z,70.20
2022-12-25T08:04:09.503Z,69.50
2022-12-25T08:09:12.796Z,69.60
2022-12-25T08:14:14.383Z,69.90
2022-12-25T08:19:15.986Z,70.00
2022-12-25T08:24:17.709Z,70.10
2022-12-25T08:29:19.463Z,70.30
2022-12-25T08:34:21.210Z,70.70
2022-12-25T08:39:23.077Z,71.30
2022-12-25T08:44:24.858Z,71.50
2022-12-25T08:49:29.090Z,71.60
2022-12-25T08:54:36.405Z,71.30
2022-12-25T08:59:38.011Z,70.90
2022-12-25T09:04:39.733Z,71.00
2022-12-25T09:09:43.507Z,71.10
2022-12-25T09:14:45.312Z,71.00
2022-12-25T09:19:47.050Z,70.90
2022-12-25T09:24:48.739Z,70.90
2022-12-25T09:29:50.870Z,71.10
2022-12-25T09:34:52.815Z,71.10
2022-12-25T09:39:54.434Z,71.00
2022-12-25T09:44:58.003Z,70.90
2022-12-25T09:50:06.863Z,70.80
2022-12-25T09:55:16.447Z,70.80
2022-12-25T10:00:23.231Z,70.80
2022-12-25T10:05:27.865Z,71.70
2022-12-25T10:10:38.894Z,70.80
2022-12-25T10:15:52.022Z,70.60
2022-12-25T10:20:54.736Z,70.60
2022-12-25T10:25:56.757Z,70.50
2022-12-25T10:31:00.325Z,70.50
2022-12-25T10:36:02.131Z,70.50
2022-12-25T10:41:03.802Z,70.50
2022-12-25T10:46:10.091Z,70.60
2022-12-25T10:51:11.918Z,70.60
2022-12-25T10:56:16.142Z,70.40
2022-12-25T11:01:18.127Z,70.10
2022-12-25T11:06:24.348Z,69.60
2022-12-25T11:11:26.603Z,69.10
2022-12-25T11:16:30.303Z,69.00
2022-12-25T11:21:33.231Z,69.80
2022-12-25T11:26:48.534Z,70.20
2022-12-25T11:31:50.907Z,71.30
2022-12-25T11:36:52.696Z,71.90
2022-12-25T11:42:03.176Z,71.30
2022-12-25T11:47:13.091Z,71.00
2022-12-25T11:52:15.214Z,70.60
2022-12-25T11:57:16.924Z,70.50
2022-12-25T12:02:18.602Z,70.60
2022-12-25T12:07:24.294Z,70.90
2022-12-25T12:12:29.666Z,71.20
2022-12-25T12:17:31.907Z,71.40
2022-12-25T12:22:33.571Z,72.00
2022-12-25T12:27:36.723Z,72.20
2022-12-25T12:32:45.369Z,72.20
2022-12-25T12:37:49.709Z,72.40
2022-12-25T12:42:52.713Z,72.50
2022-12-25T12:47:54.848Z,72.60
2022-12-25T12:52:56.997Z,72.80
2022-12-25T12:58:00.084Z,73.10
2022-12-25T13:03:13.958Z,73.10
2022-12-25T13:08:33.788Z,73.20
2022-12-25T13:13:36.764Z,73.50
2022-12-25T13:18:39.468Z,73.50
2022-12-25T13:23:41.007Z,73.60
2022-12-25T13:28:45.249Z,73.70
2022-12-25T13:33:48.965Z,73.80
2022-12-25T13:38:51.769Z,73.90
2022-12-25T13:43:57.514Z,73.90
2022-12-25T13:49:00.345Z,74.00
2022-12-25T13:54:03.706Z,74.00
2022-12-25T13:59:05.564Z,74.10
2022-12-25T14:04:12.691Z,74.00
2022-12-25T14:09:14.627Z,73.80
2022-12-25T14:14:18.599Z,74.00
2022-12-25T14:19:25.936Z,74.20
2022-12-25T14:24:28.188Z,74.40
2022-12-25T14:29:32.584Z,74.50
2022-12-25T14:34:34.554Z,74.50
2022-12-25T14:39:37.578Z,74.60
2022-12-25T14:44:40.086Z,74.60
2022-12-25T14:49:42.579Z,74.80
2022-12-25T14:54:45.700Z,74.60
2022-12-25T14:59:54.495Z,74.80
2022-12-25T15:04:56.181Z,74.50
2022-12-25T15:10:27.307Z,74.50
2022-12-25T15:15:19.635Z,74.30
2022-12-25T15:20:23.724Z,74.40
2022-12-25T15:25:28.822Z,74.40
2022-12-25T15:30:30.634Z,74.50
2022-12-25T15:35:33.345Z,74.60
2022-12-25T15:40:35.083Z,74.40
2022-12-25T15:45:36.736Z,74.10
2022-12-25T15:50:39.505Z,73.90
2022-12-25T15:55:41.169Z,73.60
2022-12-25T16:00:43.005Z,73.40
2022-12-25T16:05:44.886Z,73.20
2022-12-25T16:10:46.678Z,73.10
2022-12-25T16:15:48.467Z,73.00
2022-12-25T16:20:51.629Z,73.00
2022-12-25T16:25:53.626Z,72.80
2022-12-25T16:30:55.425Z,72.60
2022-12-25T16:35:57.503Z,72.20
2022-12-25T16:40:59.990Z,72.00
2022-12-25T16:46:01.634Z,71.90
2022-12-25T16:51:13.701Z,71.80
2022-12-25T16:56:16.699Z,71.90
2022-12-25T17:01:19.811Z,71.80
2022-12-25T17:06:23.273Z,71.90
2022-12-25T17:11:29.591Z,72.00
2022-12-25T17:16:32.440Z,72.00
2022-12-25T17:21:35.052Z,72.20
2022-12-25T17:26:36.956Z,72.20
2022-12-25T17:31:39.467Z,72.40
2022-12-25T17:36:41.607Z,72.30
2022-12-25T17:41:43.265Z,72.40
2022-12-25T17:46:45.042Z,72.50
2022-12-25T17:51:47.045Z,72.60
2022-12-25T17:56:49.636Z,72.60
2022-12-25T18:01:51.747Z,72.70
2022-12-25T18:06:53.677Z,72.70
2022-12-25T18:11:55.265Z,72.50
2022-12-25T18:16:57.187Z,72.50
2022-12-25T18:21:58.985Z,72.50
2022-12-25T18:27:00.669Z,72.50
2022-12-25T18:32:02.322Z,72.60
2022-12-25T18:37:04.138Z,72.60
2022-12-25T18:42:24.471Z,72.30
2022-12-25T18:47:26.323Z,72.40
2022-12-25T18:52:49.266Z,72.50
2022-12-25T18:57:50.039Z,72.70
2022-12-25T19:02:55.904Z,73.00
2022-12-25T19:07:57.792Z,73.00
2022-12-25T19:12:59.580Z,72.80
2022-12-25T19:18:01.616Z,72.80
2022-12-25T19:23:03.481Z,73.10
2022-12-25T19:28:05.324Z,72.40
2022-12-25T19:33:10.044Z,72.00
2022-12-25T19:38:15.675Z,71.70
2022-12-25T19:43:17.285Z,71.50
2022-12-25T19:48:18.928Z,71.40
2022-12-25T19:53:23.645Z,71.30
2022-12-25T19:58:25.433Z,71.50
2022-12-25T20:03:27.400Z,71.50
2022-12-25T20:08:29.009Z,71.80
2022-12-25T20:13:30.767Z,71.70
2022-12-25T20:18:32.511Z,71.90
2022-12-25T20:23:34.257Z,72.10
2022-12-25T20:28:36.839Z,72.10
2022-12-25T20:33:38.510Z,72.20
2022-12-25T20:38:40.656Z,72.40
2022-12-25T20:43:45.445Z,72.40
2022-12-25T20:48:47.551Z,72.60
2022-12-25T20:53:49.853Z,72.60
2022-12-25T20:58:58.593Z,72.60
2022-12-25T21:04:00.417Z,72.50
2022-12-25T21:09:02.249Z,72.50
2022-12-25T21:14:03.969Z,72.80
2022-12-25T21:19:05.701Z,72.80
2022-12-25T21:24:07.421Z,72.80
2022-12-25T21:29:09.575Z,72.90
2022-12-25T21:34:11.279Z,73.10
2022-12-25T21:39:14.251Z,73.20
2022-12-25T21:44:16.028Z,73.10
2022-12-25T21:49:37.607Z,73.20
2022-12-25T21:54:39.260Z,73.20
2022-12-25T21:59:40.913Z,73.20
2022-12-25T22:04:42.734Z,73.30
2022-12-25T22:09:48.255Z,73.40
2022-12-25T22:14:53.753Z,73.40
2022-12-25T22:19:57.077Z,73.50
2022-12-25T22:24:59.918Z,73.40
2022-12-25T22:30:01.733Z,73.50
2022-12-25T22:35:03.828Z,73.60
2022-12-25T22:40:06.188Z,73.60
2022-12-25T22:45:08.273Z,73.70
2022-12-25T22:50:10.905Z,73.60
2022-12-25T22:55:15.660Z,73.60
2022-12-25T23:00:17.524Z,73.60
2022-12-25T23:05:19.456Z,73.70
2022-12-25T23:10:21.017Z,73.70
2022-12-25T23:15:23.152Z,73.70
2022-12-25T23:20:43.759Z,73.60
2022-12-25T23:26:03.864Z,73.70
2022-12-25T23:31:05.886Z,73.70
2022-12-25T23:36:07.715Z,73.70
2022-12-25T23:41:09.448Z,73.80
2022-12-25T23:46:11.285Z,73.80
2022-12-25T23:51:13.081Z,73.70
2022-12-25T23:56:14.971Z,73.70
